createdAt,value
2018-04-17T00:02:21.455Z,101637.98
2018-04-17T00:04:47.403Z,101642.52
2018-04-17T00:07:13.352Z,101648.82
2018-04-17T00:09:39.301Z,101648.36
2018-04-17T00:12:05.272Z,101645.72
2018-04-17T00:14:31.219Z,101638.70
2018-04-17T00:16:57.184Z,101646.78
2018-04-17T00:19:23.123Z,101639.47
2018-04-17T00:21:49.067Z,101645.77
2018-04-17T00:24:15.017Z,101647.05
2018-04-17T00:26:41.007Z,101643.61
2018-04-17T00:29:06.967Z,101638.70
2018-04-17T00:31:32.923Z,101642.52
2018-04-17T00:33:58.864Z,101644.81
2018-04-17T00:36:24.809Z,101641.27
2018-04-17T00:38:50.780Z,101652.48
2018-04-17T00:41:16.754Z,101650.59
2018-04-17T00:43:42.720Z,101655.08
2018-04-17T00:46:08.675Z,101653.45
2018-04-17T00:48:34.620Z,101655.42
2018-04-17T00:51:00.580Z,101659.04
2018-04-17T00:53:26.527Z,101662.70
2018-04-17T00:55:52.482Z,101660.02
2018-04-17T00:58:18.460Z,101659.90
2018-04-17T01:00:44.404Z,101659.16
2018-04-17T01:03:10.441Z,101661.38
2018-04-17T01:05:36.370Z,101658.86
2018-04-17T01:08:02.327Z,101667.87
2018-04-17T01:10:28.340Z,101668.66
2018-04-17T01:12:54.307Z,101669.26
2018-04-17T01:15:20.289Z,101674.47
2018-04-17T01:17:46.220Z,101675.56
2018-04-17T01:20:12.156Z,101674.66
2018-04-17T01:22:38.100Z,101679.11
2018-04-17T01:25:04.065Z,101679.33
2018-04-17T01:27:30.005Z,101682.45
2018-04-17T01:29:55.944Z,101685.29
2018-04-17T01:32:21.897Z,101680.05
2018-04-17T01:34:47.852Z,101680.91
2018-04-17T01:37:13.809Z,101689.94
2018-04-17T01:39:39.772Z,101693.09
2018-04-17T01:42:05.736Z,101689.44
2018-04-17T01:44:31.672Z,101692.56
2018-04-17T01:46:57.628Z,101697.36
2018-04-17T01:49:23.590Z,101701.55
2018-04-17T01:51:49.529Z,101705.09
2018-04-17T01:54:15.459Z,101703.63
2018-04-17T01:56:41.420Z,101704.41
2018-04-17T01:59:07.351Z,101707.02
2018-04-17T02:01:33.307Z,101710.59
2018-04-17T02:03:59.267Z,101714.14
2018-04-17T02:06:25.241Z,101720.70
2018-04-17T02:08:51.185Z,101714.98
2018-04-17T02:11:17.136Z,101715.28
2018-04-17T02:13:43.093Z,101723.88
2018-04-17T02:16:09.080Z,101716.78
2018-04-17T02:18:35.024Z,101722.03
2018-04-17T02:21:00.963Z,101726.44
2018-04-17T02:23:26.917Z,101732.28
2018-04-17T02:25:52.856Z,101728.30
2018-04-17T02:28:18.884Z,101735.34
2018-04-17T02:30:44.844Z,101739.59
2018-04-17T02:33:10.787Z,101737.67
2018-04-17T02:35:36.761Z,101743.27
2018-04-17T02:38:02.711Z,101744.70
2018-04-17T02:40:28.669Z,101749.13
2018-04-17T02:42:54.685Z,101746.73
2018-04-17T02:45:20.629Z,101747.98
2018-04-17T02:47:46.583Z,101744.23
2018-04-17T02:50:12.533Z,101748.66
2018-04-17T02:52:38.487Z,101750.89
2018-04-17T02:55:04.441Z,101749.52
2018-04-17T02:57:30.408Z,101753.03
2018-04-17T02:59:56.355Z,101749.47
2018-04-17T03:02:22.317Z,101751.97
2018-04-17T03:04:48.249Z,101748.60
2018-04-17T03:07:14.212Z,101752.09
2018-04-17T03:09:40.212Z,101751.78
2018-04-17T03:12:06.163Z,101752.69
2018-04-17T03:14:32.140Z,101750.78
2018-04-17T03:16:58.078Z,101751.31
2018-04-17T03:19:24.035Z,101749.50
2018-04-17T03:21:49.985Z,101750.88
2018-04-17T03:24:15.929Z,101754.26
2018-04-17T03:26:41.882Z,101751.97
2018-04-17T03:29:07.817Z,101754.42
2018-04-17T03:31:33.840Z,101755.49
2018-04-17T03:33:59.784Z,101755.03
2018-04-17T03:36:25.741Z,101753.48
2018-04-17T03:38:51.716Z,101743.79
2018-04-17T03:41:17.644Z,101746.34
2018-04-17T03:43:43.585Z,101747.00
2018-04-17T03:46:09.539Z,101751.72
2018-04-17T03:48:35.490Z,101744.45
2018-04-17T03:51:01.462Z,101751.30
2018-04-17T03:53:27.480Z,101749.07
2018-04-17T03:55:53.433Z,101751.02
2018-04-17T03:58:19.401Z,101749.63
2018-04-17T04:00:45.338Z,101752.34
2018-04-17T04:03:11.283Z,101747.77
2018-04-17T04:05:37.237Z,101749.99
2018-04-17T04:08:03.188Z,101755.80
2018-04-17T04:10:29.159Z,101762.66
2018-04-17T04:12:55.101Z,101759.77
2018-04-17T04:15:21.058Z,101765.89
2018-04-17T04:17:46.995Z,101765.22
2018-04-17T04:20:12.951Z,101762.67
2018-04-17T04:22:38.895Z,101765.52
2018-04-17T04:25:04.844Z,101764.05
2018-04-17T04:27:30.871Z,101764.68
2018-04-17T04:29:56.790Z,101769.78
2018-04-17T04:32:22.727Z,101771.37
2018-04-17T04:34:48.682Z,101773.23
2018-04-17T04:37:14.605Z,101777.19
2018-04-17T04:39:40.569Z,101780.48
2018-04-17T04:42:06.512Z,101784.48
2018-04-17T04:44:32.469Z,101783.05
2018-04-17T04:46:58.414Z,101791.98
2018-04-17T04:49:24.352Z,101792.16
2018-04-17T04:51:50.292Z,101794.05
2018-04-17T04:54:16.243Z,101794.77
2018-04-17T04:56:42.277Z,101800.72
2018-04-17T04:59:08.222Z,101803.70
2018-04-17T05:01:34.178Z,101801.97
2018-04-17T05:04:00.117Z,101809.64
2018-04-17T05:06:26.079Z,101812.77
2018-04-17T05:08:52.048Z,101813.84
2018-04-17T05:11:17.995Z,101818.39
2018-04-17T05:13:43.950Z,101818.81
2018-04-17T05:16:09.914Z,101825.48
2018-04-17T05:18:35.856Z,101830.63
2018-04-17T05:21:01.837Z,101829.62
2018-04-17T05:23:27.779Z,101838.09
2018-04-17T05:25:53.732Z,101839.00
2018-04-17T05:28:19.723Z,101850.22
2018-04-17T05:30:45.652Z,101856.61
2018-04-17T05:33:11.608Z,101860.64
2018-04-17T05:35:37.560Z,101858.42
2018-04-17T05:38:03.491Z,101868.45
2018-04-17T05:40:29.473Z,101871.80
2018-04-17T05:42:55.430Z,101882.49
2018-04-17T05:45:21.376Z,101890.10
2018-04-17T05:47:47.339Z,101894.17
2018-04-17T05:50:13.302Z,101899.41
2018-04-17T05:52:39.250Z,101910.22
2018-04-17T05:55:05.195Z,101912.02
2018-04-17T05:57:31.140Z,101916.75
2018-04-17T05:59:57.116Z,101919.53
2018-04-17T06:02:23.084Z,101922.58
2018-04-17T06:04:49.049Z,101927.91
2018-04-17T06:07:14.988Z,101928.77
2018-04-17T06:09:40.963Z,101937.03
2018-04-17T06:12:06.936Z,101934.16
2018-04-17T06:14:32.899Z,101936.38
2018-04-17T06:16:58.852Z,101943.70
2018-04-17T06:19:24.797Z,101950.34
2018-04-17T06:21:50.760Z,101941.91
2018-04-17T06:24:16.688Z,101946.77
2018-04-17T06:26:42.653Z,101947.88
2018-04-17T06:29:08.597Z,101955.97
2018-04-17T06:31:34.556Z,101953.23
2018-04-17T06:34:00.516Z,101955.27
2018-04-17T06:36:26.452Z,101958.23
2018-04-17T06:38:52.412Z,101962.30
2018-04-17T06:41:18.385Z,101957.81
2018-04-17T06:43:44.341Z,101954.45
2018-04-17T06:46:10.342Z,101953.30
2018-04-17T06:48:36.284Z,101955.63
2018-04-17T06:51:02.279Z,101955.94
2018-04-17T06:53:28.228Z,101954.52
2018-04-17T06:55:54.184Z,101959.97
2018-04-17T06:58:20.119Z,101968.30
2018-04-17T07:00:46.068Z,101971.22
2018-04-17T07:03:12.008Z,101967.81
2018-04-17T07:05:37.952Z,101963.27
2018-04-17T07:08:03.915Z,101975.64
2018-04-17T07:10:29.857Z,101977.41
2018-04-17T07:12:55.819Z,101980.12
2018-04-17T07:15:21.760Z,101982.76
2018-04-17T07:17:47.705Z,101985.39
2018-04-17T07:20:13.692Z,101980.84
2018-04-17T07:22:39.631Z,101990.09
2018-04-17T07:25:05.583Z,101987.94
2018-04-17T07:27:31.527Z,101992.41
2018-04-17T07:29:57.499Z,101989.95
2018-04-17T07:32:23.431Z,102002.14
2018-04-17T07:34:49.380Z,101995.89
2018-04-17T07:37:15.333Z,101991.94
2018-04-17T07:39:41.276Z,101996.55
2018-04-17T07:42:07.228Z,102001.45
2018-04-17T07:44:33.167Z,102000.34
2018-04-17T07:46:59.119Z,102004.27
2018-04-17T07:49:25.089Z,102006.94
2018-04-17T07:51:51.033Z,102007.84
2018-04-17T07:54:16.972Z,102008.33
2018-04-17T07:56:42.917Z,102011.80
2018-04-17T07:59:08.865Z,102011.22
2018-04-17T08:01:34.800Z,102011.03
2018-04-17T08:04:00.736Z,102013.44
2018-04-17T08:06:26.683Z,102017.16
2018-04-17T08:08:52.627Z,102018.54
2018-04-17T08:11:18.598Z,102021.11
2018-04-17T08:13:44.539Z,102020.20
2018-04-17T08:16:10.640Z,102024.23
2018-04-17T08:18:36.604Z,102025.59
2018-04-17T08:21:02.558Z,102039.66
2018-04-17T08:23:28.488Z,102036.48
2018-04-17T08:25:54.439Z,102037.37
2018-04-17T08:28:20.412Z,102035.42
2018-04-17T08:30:46.387Z,102032.61
2018-04-17T08:33:12.341Z,102034.14
2018-04-17T08:35:38.288Z,102025.59
2018-04-17T08:38:04.252Z,102028.66
2018-04-17T08:40:30.200Z,102033.16
2018-04-17T08:42:56.149Z,102036.16
2018-04-17T08:45:22.104Z,102037.30
2018-04-17T08:47:48.080Z,102035.46
2018-04-17T08:50:14.028Z,102037.14
2018-04-17T08:52:39.985Z,102034.38
2018-04-17T08:55:05.956Z,102029.80
2018-04-17T08:57:31.918Z,102027.72
2018-04-17T08:59:57.880Z,102014.44
2018-04-17T09:02:23.834Z,102016.25
2018-04-17T09:04:49.821Z,102014.10
2018-04-17T09:07:15.782Z,102010.03
2018-04-17T09:09:41.724Z,102005.69
2018-04-17T09:12:07.685Z,102012.26
2018-04-17T09:14:33.636Z,102005.91
2018-04-17T09:16:59.592Z,102006.32
2018-04-17T09:19:25.606Z,102010.52
2018-04-17T09:21:51.576Z,102014.83
2018-04-17T09:24:17.548Z,102017.16
2018-04-17T09:26:43.509Z,102017.05
2018-04-17T09:29:09.472Z,102014.27
2018-04-17T09:31:35.412Z,102011.56
2018-04-17T09:34:01.356Z,102006.94
2018-04-17T09:36:27.325Z,102009.89
2018-04-17T09:38:53.264Z,102009.65
2018-04-17T09:41:19.232Z,102009.30
2018-04-17T09:43:45.231Z,102013.19
2018-04-17T09:46:11.172Z,102014.13
2018-04-17T09:48:37.144Z,102012.14
2018-04-17T09:51:03.093Z,102007.28
2018-04-17T09:53:29.065Z,102005.93
2018-04-17T09:55:55.012Z,102010.13
2018-04-17T09:58:20.984Z,102007.84
2018-04-17T10:00:46.916Z,102001.80
2018-04-17T10:03:12.896Z,102004.27
2018-04-17T10:05:38.848Z,102006.48
2018-04-17T10:08:04.900Z,102001.25
2018-04-17T10:10:30.875Z,102010.00
2018-04-17T10:12:56.820Z,102003.95
2018-04-17T10:15:22.792Z,102003.88
2018-04-17T10:17:48.740Z,102000.93
2018-04-17T10:20:14.756Z,101998.19
2018-04-17T10:22:40.704Z,101987.62
2018-04-17T10:25:06.665Z,101991.38
2018-04-17T10:27:32.631Z,101989.74
2018-04-17T10:29:58.576Z,101990.34
2018-04-17T10:32:24.559Z,101984.59
2018-04-17T10:34:50.511Z,101994.29
2018-04-17T10:37:16.456Z,101989.09
2018-04-17T10:39:42.458Z,101984.46
2018-04-17T10:42:08.365Z,101975.22
2018-04-17T10:44:34.348Z,101983.59
2018-04-17T10:47:00.287Z,101984.33
2018-04-17T10:49:26.248Z,101980.50
2018-04-17T10:51:52.198Z,101974.52
2018-04-17T10:54:18.239Z,101967.65
2018-04-17T10:56:44.195Z,101972.13
2018-04-17T10:59:10.139Z,101965.84
2018-04-17T11:01:36.112Z,101973.48
2018-04-17T11:04:02.129Z,101973.03
2018-04-17T11:06:28.035Z,101968.89
2018-04-17T11:08:54.003Z,101968.23
2018-04-17T11:11:19.968Z,101966.08
2018-04-17T11:13:45.925Z,101965.91
2018-04-17T11:16:11.931Z,101959.48
2018-04-17T11:18:37.836Z,101961.56
2018-04-17T11:21:03.828Z,101964.28
2018-04-17T11:23:29.803Z,101962.16
2018-04-17T11:25:55.731Z,101963.02
2018-04-17T11:28:21.703Z,101955.34
2018-04-17T11:30:47.643Z,101953.74
2018-04-17T11:33:13.661Z,101949.72
2018-04-17T11:35:39.678Z,101948.22
2018-04-17T11:38:05.633Z,101957.05
2018-04-17T11:40:31.592Z,101957.28
2018-04-17T11:42:57.627Z,101957.77
2018-04-17T11:45:23.504Z,101969.23
2018-04-17T11:47:49.460Z,101972.13
2018-04-17T11:50:15.488Z,101976.02
2018-04-17T11:52:41.421Z,101967.36
2018-04-17T11:55:07.368Z,101966.53
2018-04-17T11:57:33.369Z,101968.33
2018-04-17T11:59:59.271Z,101961.25
2018-04-17T12:02:25.367Z,101965.10
2018-04-17T12:04:51.264Z,101954.99
2018-04-17T12:07:17.203Z,101947.55
2018-04-17T12:09:43.148Z,101944.14
2018-04-17T12:12:09.097Z,101948.34
2018-04-17T12:14:35.047Z,101940.67
2018-04-17T12:17:01.016Z,101946.13
2018-04-17T12:19:27.009Z,101946.13
2018-04-17T12:21:53.027Z,101948.53
2018-04-17T12:24:18.972Z,101942.16
2018-04-17T12:26:44.965Z,101945.64
2018-04-17T12:29:10.959Z,101947.55
2018-04-17T12:31:36.897Z,101943.80
2018-04-17T12:34:02.857Z,101946.29
2018-04-17T12:36:28.815Z,101947.61
2018-04-17T12:38:54.760Z,101942.19
2018-04-17T12:41:20.740Z,101945.63
2018-04-17T12:43:46.760Z,101939.09
2018-04-17T12:46:12.736Z,101938.61
2018-04-17T12:48:38.684Z,101935.96
2018-04-17T12:51:04.652Z,101929.84
2018-04-17T12:53:30.584Z,101924.40
2018-04-17T12:55:56.543Z,101917.09
2018-04-17T12:58:22.517Z,101909.17
2018-04-17T13:00:48.462Z,101916.01
2018-04-17T13:03:14.423Z,101917.64
2018-04-17T13:05:40.373Z,101917.70
2018-04-17T13:08:06.290Z,101919.69
2018-04-17T13:10:32.239Z,101927.72
2018-04-17T13:12:58.208Z,101933.98
2018-04-17T13:15:24.159Z,101932.66
2018-04-17T13:17:50.103Z,101934.80
2018-04-17T13:20:16.052Z,101928.82
2018-04-17T13:22:41.995Z,101926.54
2018-04-17T13:25:07.959Z,101928.38
2018-04-17T13:27:33.924Z,101924.59
2018-04-17T13:29:59.938Z,101927.86
2018-04-17T13:32:25.883Z,101923.72
2018-04-17T13:34:51.844Z,101926.81
2018-04-17T13:37:17.816Z,101920.45
2018-04-17T13:39:43.790Z,101925.88
2018-04-17T13:42:09.731Z,101928.95
2018-04-17T13:44:35.684Z,101933.02
2018-04-17T13:47:01.715Z,101919.78
2018-04-17T13:49:27.664Z,101914.19
2018-04-17T13:51:53.624Z,101910.05
2018-04-17T13:54:19.571Z,101909.63
2018-04-17T13:56:45.513Z,101901.40
2018-04-17T13:59:11.480Z,101898.89
2018-04-17T14:01:37.512Z,101896.78
2018-04-17T14:04:03.464Z,101895.77
2018-04-17T14:06:29.489Z,101891.43
2018-04-17T14:08:55.424Z,101896.71
2018-04-17T14:11:21.371Z,101894.45
2018-04-17T14:13:47.312Z,101898.67
2018-04-17T14:16:13.308Z,101891.84
2018-04-17T14:18:39.277Z,101895.41
2018-04-17T14:21:05.240Z,101889.52
2018-04-17T14:23:31.257Z,101891.91
2018-04-17T14:25:57.232Z,101895.53
2018-04-17T14:28:23.170Z,101894.94
2018-04-17T14:30:49.111Z,101902.30
2018-04-17T14:33:15.123Z,101897.69
2018-04-17T14:35:41.073Z,101901.53
2018-04-17T14:38:07.031Z,101896.71
2018-04-17T14:40:32.971Z,101902.66
2018-04-17T14:42:58.936Z,101896.30
2018-04-17T14:45:24.873Z,101901.81
2018-04-17T14:47:50.813Z,101908.06
2018-04-17T14:50:16.752Z,101907.72
2018-04-17T14:52:42.708Z,101916.33
2018-04-17T14:55:08.675Z,101913.69
2018-04-17T14:57:34.616Z,101911.54
2018-04-17T15:00:00.607Z,101910.07
2018-04-17T15:02:26.576Z,101905.42
2018-04-17T15:04:52.559Z,101907.56
2018-04-17T15:07:18.505Z,101908.40
2018-04-17T15:09:44.511Z,101909.94
2018-04-17T15:12:10.541Z,101915.33
2018-04-17T15:14:36.568Z,101910.20
2018-04-17T15:17:02.531Z,101914.74
2018-04-17T15:19:28.467Z,101912.97
2018-04-17T15:21:54.465Z,101910.41
2018-04-17T15:24:20.420Z,101912.84
2018-04-17T15:26:46.376Z,101907.23
2018-04-17T15:29:12.333Z,101909.32
2018-04-17T15:31:38.289Z,101906.75
2018-04-17T15:34:04.227Z,101910.22
2018-04-17T15:36:30.207Z,101908.38
2018-04-17T15:38:56.256Z,101910.05
2018-04-17T15:41:22.200Z,101915.80
2018-04-17T15:43:48.168Z,101913.16
2018-04-17T15:46:14.107Z,101924.03
2018-04-17T15:48:40.118Z,101919.52
2018-04-17T15:51:06.060Z,101923.02
2018-04-17T15:53:32.016Z,101919.72
2018-04-17T15:55:57.955Z,101920.55
2018-04-17T15:58:23.908Z,101925.22
2018-04-17T16:00:49.870Z,101914.89
2018-04-17T16:03:15.830Z,101917.67
2018-04-17T16:05:42.046Z,101920.73
2018-04-17T16:08:07.993Z,101926.19
2018-04-17T16:10:33.947Z,101926.19
2018-04-17T16:12:59.893Z,101928.52
2018-04-17T16:15:25.864Z,101925.18
2018-04-17T16:17:51.812Z,101920.53
2018-04-17T16:20:17.764Z,101929.59
2018-04-17T16:22:43.708Z,101927.89
2018-04-17T16:25:09.681Z,101925.03
2018-04-17T16:27:35.649Z,101925.94
2018-04-17T16:30:01.599Z,101925.83
2018-04-17T16:32:27.602Z,101925.84
2018-04-17T16:34:53.548Z,101921.67
2018-04-17T16:37:19.501Z,101921.15
2018-04-17T16:39:45.460Z,101918.44
2018-04-17T16:42:11.405Z,101919.83
2018-04-17T16:44:37.354Z,101921.80
2018-04-17T16:47:03.298Z,101922.16
2018-04-17T16:49:29.240Z,101925.18
2018-04-17T16:51:55.204Z,101925.95
2018-04-17T16:54:21.162Z,101933.34
2018-04-17T16:56:47.109Z,101922.72
2018-04-17T16:59:13.052Z,101929.67
2018-04-17T17:01:39.001Z,101932.83
2018-04-17T17:04:04.953Z,101931.89
2018-04-17T17:06:30.954Z,101932.13
2018-04-17T17:08:56.975Z,101939.57
2018-04-17T17:11:22.929Z,101940.30
2018-04-17T17:13:48.896Z,101957.29
2018-04-17T17:16:14.832Z,101948.95
2018-04-17T17:18:40.784Z,101950.06
2018-04-17T17:21:06.736Z,101951.45
2018-04-17T17:23:32.708Z,101950.03
2018-04-17T17:25:58.690Z,101962.98
2018-04-17T17:28:24.657Z,101966.81
2018-04-17T17:30:50.589Z,101968.80
2018-04-17T17:33:16.560Z,101971.57
2018-04-17T17:35:42.507Z,101971.50
2018-04-17T17:38:08.479Z,101971.81
2018-04-17T17:40:34.429Z,101973.00
2018-04-17T17:43:00.415Z,101971.25
2018-04-17T17:45:26.385Z,101966.39
2018-04-17T17:47:52.339Z,101974.21
2018-04-17T17:50:18.303Z,101973.20
2018-04-17T17:52:44.256Z,101974.80
2018-04-17T17:55:10.217Z,101981.23
2018-04-17T17:57:36.172Z,101980.10
2018-04-17T18:00:02.139Z,101981.46
2018-04-17T18:02:28.085Z,101987.16
2018-04-17T18:04:54.048Z,101990.96
2018-04-17T18:07:20.030Z,101994.09
2018-04-17T18:09:45.969Z,101989.77
2018-04-17T18:12:11.944Z,101999.95
2018-04-17T18:14:37.929Z,102001.52
2018-04-17T18:17:03.940Z,102003.43
2018-04-17T18:19:29.888Z,102010.79
2018-04-17T18:21:55.836Z,102013.53
2018-04-17T18:24:21.798Z,102017.08
2018-04-17T18:26:47.747Z,102023.63
2018-04-17T18:29:13.689Z,102028.77
2018-04-17T18:31:39.640Z,102018.93
2018-04-17T18:34:05.613Z,102022.83
2018-04-17T18:36:31.577Z,102023.97
2018-04-17T18:38:57.515Z,102027.59
2018-04-17T18:41:23.481Z,102031.59
2018-04-17T18:43:49.453Z,102038.16
2018-04-17T18:46:15.429Z,102037.77
2018-04-17T18:48:41.388Z,102048.27
2018-04-17T18:51:07.339Z,102048.89
2018-04-17T18:53:33.284Z,102046.95
2018-04-17T18:55:59.296Z,102057.17
2018-04-17T18:58:25.252Z,102059.88
2018-04-17T19:00:51.243Z,102061.55
2018-04-17T19:03:17.182Z,102067.80
2018-04-17T19:05:43.144Z,102066.97
2018-04-17T19:08:09.113Z,102069.20
2018-04-17T19:10:35.065Z,102075.73
2018-04-17T19:13:01.005Z,102072.12
2018-04-17T19:15:26.951Z,102080.25
2018-04-17T19:17:52.905Z,102082.41
2018-04-17T19:20:18.844Z,102083.31
2018-04-17T19:22:44.820Z,102086.89
2018-04-17T19:25:10.778Z,102088.77
2018-04-17T19:27:36.735Z,102099.37
2018-04-17T19:30:02.699Z,102101.42
2018-04-17T19:32:28.700Z,102101.91
2018-04-17T19:34:54.738Z,102107.20
2018-04-17T19:37:20.669Z,102111.47
2018-04-17T19:39:46.629Z,102111.75
2018-04-17T19:42:12.580Z,102117.00
2018-04-17T19:44:38.547Z,102126.34
2018-04-17T19:47:04.576Z,102122.38
2018-04-17T19:49:30.525Z,102116.61
2018-04-17T19:51:56.488Z,102124.09
2018-04-17T19:54:22.480Z,102126.39
2018-04-17T19:56:48.464Z,102124.27
2018-04-17T19:59:14.427Z,102127.60
2018-04-17T20:01:40.369Z,102126.27
2018-04-17T20:04:06.322Z,102134.58
2018-04-17T20:06:32.313Z,102132.70
2018-04-17T20:08:58.264Z,102147.83
2018-04-17T20:11:24.253Z,102150.59
2018-04-17T20:13:50.248Z,102146.33
2018-04-17T20:16:16.148Z,102148.31
2018-04-17T20:18:42.111Z,102151.20
2018-04-17T20:21:08.046Z,102153.59
2018-04-17T20:23:34.018Z,102155.88
2018-04-17T20:25:59.968Z,102148.66
2018-04-17T20:28:25.943Z,102147.00
2018-04-17T20:30:51.901Z,102153.98
2018-04-17T20:33:17.889Z,102155.06
2018-04-17T20:35:43.845Z,102156.00
2018-04-17T20:38:09.821Z,102152.45
2018-04-17T20:40:35.781Z,102151.83
2018-04-17T20:43:01.740Z,102155.73
2018-04-17T20:45:27.688Z,102153.42
2018-04-17T20:47:53.653Z,102152.34
2018-04-17T20:50:19.591Z,102154.67
2018-04-17T20:52:45.541Z,102151.62
2018-04-17T20:55:11.529Z,102156.30
2018-04-17T20:57:37.476Z,102158.36
2018-04-17T21:00:03.453Z,102158.19
2018-04-17T21:02:29.410Z,102158.81
2018-04-17T21:04:55.399Z,102164.52
2018-04-17T21:07:21.345Z,102163.67
2018-04-17T21:09:47.292Z,102169.44
2018-04-17T21:12:13.255Z,102166.59
2018-04-17T21:14:39.221Z,102169.20
2018-04-17T21:17:05.170Z,102171.50
2018-04-17T21:19:31.316Z,102170.53
2018-04-17T21:21:57.281Z,102172.23
2018-04-17T21:24:23.260Z,102173.42
2018-04-17T21:26:49.225Z,102175.78
2018-04-17T21:29:15.180Z,102180.83
2018-04-17T21:31:41.136Z,102182.38
2018-04-17T21:34:07.092Z,102185.20
2018-04-17T21:36:33.026Z,102188.45
2018-04-17T21:38:58.968Z,102184.45
2018-04-17T21:41:25.009Z,102189.75
2018-04-17T21:43:50.936Z,102192.78
2018-04-17T21:46:16.880Z,102195.19
2018-04-17T21:48:42.824Z,102199.54
2018-04-17T21:51:08.768Z,102202.00
2018-04-17T21:53:34.715Z,102205.80
2018-04-17T21:56:00.664Z,102209.20
2018-04-17T21:58:26.656Z,102215.20
2018-04-17T22:00:52.596Z,102215.61
2018-04-17T22:03:18.557Z,102215.56
2018-04-17T22:05:44.509Z,102228.34
2018-04-17T22:08:10.463Z,102231.77
2018-04-17T22:10:36.424Z,102227.08
2018-04-17T22:13:02.380Z,102232.33
2018-04-17T22:15:28.339Z,102231.17
2018-04-17T22:17:54.376Z,102233.88
2018-04-17T22:20:20.331Z,102235.64
2018-04-17T22:22:46.277Z,102242.08
2018-04-17T22:25:12.221Z,102237.65
2018-04-17T22:27:38.176Z,102245.16
2018-04-17T22:30:04.149Z,102245.47
2018-04-17T22:32:30.090Z,102248.77
2018-04-17T22:34:56.036Z,102253.03
2018-04-17T22:37:22.129Z,102252.05
2018-04-17T22:39:48.068Z,102257.33
2018-04-17T22:42:14.047Z,102248.78
2018-04-17T22:44:40.021Z,102262.41
2018-04-17T22:47:05.963Z,102263.52
2018-04-17T22:49:31.912Z,102259.45
2018-04-17T22:51:57.873Z,102264.83
2018-04-17T22:54:23.863Z,102268.40
2018-04-17T22:56:49.807Z,102273.40
2018-04-17T22:59:15.760Z,102274.40
2018-04-17T23:01:41.713Z,102271.76
2018-04-17T23:04:07.691Z,102270.77
2018-04-17T23:06:33.636Z,102273.56
2018-04-17T23:08:59.589Z,102276.05
2018-04-17T23:11:25.564Z,102282.48
2018-04-17T23:13:51.510Z,102279.94
2018-04-17T23:16:17.448Z,102274.24
2018-04-17T23:18:43.424Z,102272.83
2018-04-17T23:21:09.368Z,102278.02
2018-04-17T23:23:35.312Z,102276.95
2018-04-17T23:26:01.256Z,102287.90
2018-04-17T23:28:27.208Z,102286.64
2018-04-17T23:30:53.159Z,102293.53
2018-04-17T23:33:19.094Z,102286.64
2018-04-17T23:35:45.045Z,102288.84
2018-04-17T23:38:10.984Z,102294.44
2018-04-17T23:40:36.932Z,102290.38
2018-04-17T23:43:02.868Z,102285.42
2018-04-17T23:45:28.819Z,102292.05
2018-04-17T23:47:54.771Z,102294.59
2018-04-17T23:50:20.748Z,102296.14
2018-04-17T23:52:46.696Z,102298.30
2018-04-17T23:55:12.636Z,102301.20
2018-04-17T23:57:38.620Z,102304.00
